sensor_id;sensor_type;location;lat;lon;timestamp;P1;durP1;ratioP1;P2;durP2;ratioP2
17169;SDS011;8700;48.222;16.342;2024-03-23T00:56:56;11.55;;;10.65;;
17169;SDS011;8700;48.222;16.342;2024-03-23T01:00:17;12.07;;;11.02;;
17169;SDS011;8700;48.222;16.342;2024-03-23T01:03:38;11.93;;;11.02;;
17169;SDS011;8700;48.222;16.342;2024-03-23T01:06:59;14.00;;;12.60;;
17169;SDS011;8700;48.222;16.342;2024-03-23T01:10:20;13.77;;;12.60;;
17169;SDS011;8700;48.222;16.342;2024-03-23T01:13:42;13.23;;;12.23;;
17169;SDS011;8700;48.222;16.342;2024-03-23T01:17:03;15.35;;;14.10;;
17169;SDS011;8700;48.222;16.342;2024-03-23T01:20:23;14.93;;;13.65;;
17169;SDS011;8700;48.222;16.342;2024-03-23T01:23:44;15.05;;;13.68;;
17169;SDS011;8700;48.222;16.342;2024-03-23T01:27:06;15.98;;;14.63;;
17169;SDS011;8700;48.222;16.342;2024-03-23T01:30:29;15.25;;;14.05;;
17169;SDS011;8700;48.222;16.342;2024-03-23T01:33:50;15.85;;;14.35;;
17169;SDS011;8700;48.222;16.342;2024-03-23T01:37:11;15.18;;;13.98;;
17169;SDS011;8700;48.222;16.342;2024-03-23T01:40:32;17.20;;;15.55;;
17169;SDS011;8700;48.222;16.342;2024-03-23T01:43:54;23.80;;;21.60;;
17169;SDS011;8700;48.222;16.342;2024-03-23T01:47:16;16.98;;;15.68;;
17169;SDS011;8700;48.222;16.342;2024-03-23T01:50:37;17.60;;;16.10;;
17169;SDS011;8700;48.222;16.342;2024-03-23T01:53:57;17.70;;;16.00;;
17169;SDS011;8700;48.222;16.342;2024-03-23T01:57:22;17.00;;;15.70;;
17169;SDS011;8700;48.222;16.342;2024-03-23T02:00:45;16.15;;;14.95;;
17169;SDS011;8700;48.222;16.342;2024-03-23T02:04:05;16.60;;;15.05;;
17169;SDS011;8700;48.222;16.342;2024-03-23T02:07:26;16.73;;;15.02;;
17169;SDS011;8700;48.222;16.342;2024-03-23T02:10:47;16.35;;;14.95;;
17169;SDS011;8700;48.222;16.342;2024-03-23T02:14:08;17.10;;;15.70;;
17169;SDS011;8700;48.222;16.342;2024-03-23T02:17:30;16.52;;;15.23;;
17169;SDS011;8700;48.222;16.342;2024-03-23T02:20:53;16.88;;;15.30;;
17169;SDS011;8700;48.222;16.342;2024-03-23T02:24:15;16.02;;;14.73;;
17169;SDS011;8700;48.222;16.342;2024-03-23T02:27:36;16.40;;;14.98;;
17169;SDS011;8700;48.222;16.342;2024-03-23T02:30:58;15.30;;;13.93;;
17169;SDS011;8700;48.222;16.342;2024-03-23T02:34:20;17.05;;;15.68;;
17169;SDS011;8700;48.222;16.342;2024-03-23T02:37:41;15.65;;;14.38;;
17169;SDS011;8700;48.222;16.342;2024-03-23T02:41:04;16.00;;;14.60;;
17169;SDS011;8700;48.222;16.342;2024-03-23T02:44:25;17.23;;;15.82;;
17169;SDS011;8700;48.222;16.342;2024-03-23T02:47:45;17.70;;;16.17;;
17169;SDS011;8700;48.222;16.342;2024-03-23T02:51:11;17.77;;;16.27;;
17169;SDS011;8700;48.222;16.342;2024-03-23T02:54:32;17.92;;;16.23;;
17169;SDS011;8700;48.222;16.342;2024-03-23T02:57:54;16.33;;;14.93;;
17169;SDS011;8700;48.222;16.342;2024-03-23T03:01:15;16.38;;;14.85;;
17169;SDS011;8700;48.222;16.342;2024-03-23T03:04:35;15.40;;;14.20;;
17169;SDS011;8700;48.222;16.342;2024-03-23T03:07:56;15.10;;;13.80;;
17169;SDS011;8700;48.222;16.342;2024-03-23T03:11:17;14.27;;;13.13;;
17169;SDS011;8700;48.222;16.342;2024-03-23T03:14:39;14.10;;;12.90;;
17169;SDS011;8700;48.222;16.342;2024-03-23T03:18:00;14.65;;;13.35;;
17169;SDS011;8700;48.222;16.342;2024-03-23T03:21:21;14.45;;;13.15;;
17169;SDS011;8700;48.222;16.342;2024-03-23T03:24:42;15.25;;;13.75;;
17169;SDS011;8700;48.222;16.342;2024-03-23T03:28:04;14.55;;;13.23;;
17169;SDS011;8700;48.222;16.342;2024-03-23T03:31:26;15.13;;;13.73;;
17169;SDS011;8700;48.222;16.342;2024-03-23T03:34:47;14.48;;;13.13;;
17169;SDS011;8700;48.222;16.342;2024-03-23T03:38:09;14.35;;;13.23;;
17169;SDS011;8700;48.222;16.342;2024-03-23T03:41:31;12.63;;;11.73;;
17169;SDS011;8700;48.222;16.342;2024-03-23T03:44:52;13.27;;;12.07;;
17169;SDS011;8700;48.222;16.342;2024-03-23T03:48:15;11.45;;;10.70;;
17169;SDS011;8700;48.222;16.342;2024-03-23T03:51:35;12.43;;;11.52;;
17169;SDS011;8700;48.222;16.342;2024-03-23T03:55:00;13.40;;;12.15;;
17169;SDS011;8700;48.222;16.342;2024-03-23T03:58:22;12.70;;;11.75;;
17169;SDS011;8700;48.222;16.342;2024-03-23T04:01:43;13.18;;;12.10;;
17169;SDS011;8700;48.222;16.342;2024-03-23T04:05:06;11.70;;;10.70;;
17169;SDS011;8700;48.222;16.342;2024-03-23T04:08:27;12.70;;;11.80;;
17169;SDS011;8700;48.222;16.342;2024-03-23T04:11:48;14.05;;;12.85;;
17169;SDS011;8700;48.222;16.342;2024-03-23T04:15:09;13.50;;;12.40;;
17169;SDS011;8700;48.222;16.342;2024-03-23T04:18:31;13.88;;;12.48;;
17169;SDS011;8700;48.222;16.342;2024-03-23T04:21:53;13.18;;;12.15;;
17169;SDS011;8700;48.222;16.342;2024-03-23T04:25:14;13.40;;;12.18;;
17169;SDS011;8700;48.222;16.342;2024-03-23T04:28:35;13.65;;;12.63;;
17169;SDS011;8700;48.222;16.342;2024-03-23T04:31:57;14.57;;;13.38;;
17169;SDS011;8700;48.222;16.342;2024-03-23T04:35:18;14.10;;;12.95;;
17169;SDS011;8700;48.222;16.342;2024-03-23T04:38:43;14.38;;;13.05;;
17169;SDS011;8700;48.222;16.342;2024-03-23T04:42:09;14.60;;;13.40;;
17169;SDS011;8700;48.222;16.342;2024-03-23T04:45:31;12.88;;;11.98;;
17169;SDS011;8700;48.222;16.342;2024-03-23T04:48:52;13.80;;;12.70;;
17169;SDS011;8700;48.222;16.342;2024-03-23T04:52:13;13.25;;;12.18;;
17169;SDS011;8700;48.222;16.342;2024-03-23T04:55:36;13.30;;;12.20;;
17169;SDS011;8700;48.222;16.342;2024-03-23T04:58:57;12.88;;;11.68;;
17169;SDS011;8700;48.222;16.342;2024-03-23T05:02:20;12.68;;;11.73;;
17169;SDS011;8700;48.222;16.342;2024-03-23T05:05:41;13.15;;;10.93;;
17169;SDS011;8700;48.222;16.342;2024-03-23T05:09:02;15.30;;;13.88;;
17169;SDS011;8700;48.222;16.342;2024-03-23T05:12:26;13.10;;;12.02;;
17169;SDS011;8700;48.222;16.342;2024-03-23T05:15:50;14.05;;;12.68;;
17169;SDS011;8700;48.222;16.342;2024-03-23T05:19:13;13.00;;;11.98;;
17169;SDS011;8700;48.222;16.342;2024-03-23T05:22:34;12.80;;;11.90;;
17169;SDS011;8700;48.222;16.342;2024-03-23T05:25:55;13.13;;;11.80;;
17169;SDS011;8700;48.222;16.342;2024-03-23T05:29:16;12.30;;;11.27;;
17169;SDS011;8700;48.222;16.342;2024-03-23T05:32:38;13.02;;;12.00;;
17169;SDS011;8700;48.222;16.342;2024-03-23T05:36:00;11.43;;;10.63;;
17169;SDS011;8700;48.222;16.342;2024-03-23T05:39:23;12.95;;;11.80;;
17169;SDS011;8700;48.222;16.342;2024-03-23T05:42:44;11.80;;;10.90;;
17169;SDS011;8700;48.222;16.342;2024-03-23T05:46:06;11.63;;;10.73;;
17169;SDS011;8700;48.222;16.342;2024-03-23T05:49:28;12.57;;;11.48;;
17169;SDS011;8700;48.222;16.342;2024-03-23T05:52:49;12.60;;;11.50;;
17169;SDS011;8700;48.222;16.342;2024-03-23T05:56:10;12.52;;;11.60;;
17169;SDS011;8700;48.222;16.342;2024-03-23T05:59:30;12.35;;;11.45;;
17169;SDS011;8700;48.222;16.342;2024-03-23T06:02:53;14.20;;;13.10;;
17169;SDS011;8700;48.222;16.342;2024-03-23T06:06:13;16.67;;;14.30;;
17169;SDS011;8700;48.222;16.342;2024-03-23T06:09:34;16.67;;;15.32;;
17169;SDS011;8700;48.222;16.342;2024-03-23T06:12:55;16.00;;;14.52;;
17169;SDS011;8700;48.222;16.342;2024-03-23T06:16:17;19.10;;;17.45;;
17169;SDS011;8700;48.222;16.342;2024-03-23T06:19:43;16.63;;;15.23;;
17169;SDS011;8700;48.222;16.342;2024-03-23T06:23:05;17.27;;;15.68;;
17169;SDS011;8700;48.222;16.342;2024-03-23T06:26:25;16.50;;;15.05;;
17169;SDS011;8700;48.222;16.342;2024-03-23T06:29:46;17.15;;;15.73;;
17169;SDS011;8700;48.222;16.342;2024-03-23T06:33:07;15.43;;;14.13;;
17169;SDS011;8700;48.222;16.342;2024-03-23T06:36:30;15.60;;;14.38;;
17169;SDS011;8700;48.222;16.342;2024-03-23T06:39:51;14.65;;;13.45;;
17169;SDS011;8700;48.222;16.342;2024-03-23T06:43:12;14.80;;;13.55;;
17169;SDS011;8700;48.222;16.342;2024-03-23T06:46:32;15.10;;;13.70;;
17169;SDS011;8700;48.222;16.342;2024-03-23T06:49:53;14.60;;;13.40;;
17169;SDS011;8700;48.222;16.342;2024-03-23T06:53:14;26.67;;;24.65;;
17169;SDS011;8700;48.222;16.342;2024-03-23T06:56:36;14.88;;;13.48;;
17169;SDS011;8700;48.222;16.342;2024-03-23T06:59:56;13.43;;;12.10;;
17169;SDS011;8700;48.222;16.342;2024-03-23T07:03:17;13.02;;;12.07;;
17169;SDS011;8700;48.222;16.342;2024-03-23T07:06:42;15.55;;;14.35;;
17169;SDS011;8700;48.222;16.342;2024-03-23T07:10:05;15.52;;;13.50;;
17169;SDS011;8700;48.222;16.342;2024-03-23T07:13:28;14.30;;;12.98;;
17169;SDS011;8700;48.222;16.342;2024-03-23T07:16:49;15.82;;;14.50;;
17169;SDS011;8700;48.222;16.342;2024-03-23T07:20:10;13.27;;;12.18;;
17169;SDS011;8700;48.222;16.342;2024-03-23T07:23:32;13.50;;;12.43;;
17169;SDS011;8700;48.222;16.342;2024-03-23T07:26:55;15.82;;;14.52;;
17169;SDS011;8700;48.222;16.342;2024-03-23T07:30:17;14.68;;;13.27;;
17169;SDS011;8700;48.222;16.342;2024-03-23T07:33:41;14.75;;;13.55;;
17169;SDS011;8700;48.222;16.342;2024-03-23T07:37:02;14.95;;;13.55;;
17169;SDS011;8700;48.222;16.342;2024-03-23T07:40:23;14.13;;;12.90;;
17169;SDS011;8700;48.222;16.342;2024-03-23T07:43:46;13.40;;;12.23;;
17169;SDS011;8700;48.222;16.342;2024-03-23T07:47:07;14.65;;;13.35;;
17169;SDS011;8700;48.222;16.342;2024-03-23T07:50:28;15.00;;;13.75;;
17169;SDS011;8700;48.222;16.342;2024-03-23T07:53:49;16.95;;;15.27;;
17169;SDS011;8700;48.222;16.342;2024-03-23T07:57:11;15.82;;;14.73;;
17169;SDS011;8700;48.222;16.342;2024-03-23T08:00:33;17.38;;;15.80;;
17169;SDS011;8700;48.222;16.342;2024-03-23T08:03:54;16.05;;;14.63;;
17169;SDS011;8700;48.222;16.342;2024-03-23T08:07:14;15.55;;;14.05;;
17169;SDS011;8700;48.222;16.342;2024-03-23T08:10:35;14.77;;;13.63;;
17169;SDS011;8700;48.222;16.342;2024-03-23T08:13:55;14.73;;;13.48;;
17169;SDS011;8700;48.222;16.342;2024-03-23T08:17:18;17.52;;;16.13;;
17169;SDS011;8700;48.222;16.342;2024-03-23T08:20:39;18.05;;;16.58;;
17169;SDS011;8700;48.222;16.342;2024-03-23T08:23:59;17.10;;;15.65;;
17169;SDS011;8700;48.222;16.342;2024-03-23T08:27:21;18.88;;;17.23;;
17169;SDS011;8700;48.222;16.342;2024-03-23T08:30:41;19.98;;;18.15;;
17169;SDS011;8700;48.222;16.342;2024-03-23T08:34:05;19.08;;;17.52;;
17169;SDS011;8700;48.222;16.342;2024-03-23T08:37:26;18.98;;;17.25;;
17169;SDS011;8700;48.222;16.342;2024-03-23T08:40:47;18.60;;;17.00;;
17169;SDS011;8700;48.222;16.342;2024-03-23T08:44:08;17.67;;;16.23;;
17169;SDS011;8700;48.222;16.342;2024-03-23T08:47:29;17.73;;;16.23;;
17169;SDS011;8700;48.222;16.342;2024-03-23T08:50:59;17.35;;;15.80;;
17169;SDS011;8700;48.222;16.342;2024-03-23T08:54:20;19.60;;;17.70;;
17169;SDS011;8700;48.222;16.342;2024-03-23T08:57:42;18.23;;;16.73;;
17169;SDS011;8700;48.222;16.342;2024-03-23T09:01:03;18.17;;;16.77;;
17169;SDS011;8700;48.222;16.342;2024-03-23T09:04:25;16.35;;;14.98;;
17169;SDS011;8700;48.222;16.342;2024-03-23T09:07:47;15.90;;;14.75;;
17169;SDS011;8700;48.222;16.342;2024-03-23T09:11:09;13.93;;;12.68;;
17169;SDS011;8700;48.222;16.342;2024-03-23T09:14:32;12.30;;;11.32;;
17169;SDS011;8700;48.222;16.342;2024-03-23T09:17:52;11.70;;;10.70;;
17169;SDS011;8700;48.222;16.342;2024-03-23T09:21:14;10.00;;;9.20;;
17169;SDS011;8700;48.222;16.342;2024-03-23T09:24:36;8.90;;;8.20;;
17169;SDS011;8700;48.222;16.342;2024-03-23T09:27:58;8.65;;;7.95;;
17169;SDS011;8700;48.222;16.342;2024-03-23T09:31:19;7.82;;;7.13;;
17169;SDS011;8700;48.222;16.342;2024-03-23T09:34:41;7.72;;;7.00;;
17169;SDS011;8700;48.222;16.342;2024-03-23T09:38:01;7.15;;;6.65;;
17169;SDS011;8700;48.222;16.342;2024-03-23T09:41:24;7.65;;;6.95;;
17169;SDS011;8700;48.222;16.342;2024-03-23T09:44:44;7.30;;;6.72;;
17169;SDS011;8700;48.222;16.342;2024-03-23T09:48:06;5.35;;;4.55;;
17169;SDS011;8700;48.222;16.342;2024-03-23T09:51:28;5.22;;;4.82;;
17169;SDS011;8700;48.222;16.342;2024-03-23T09:54:49;5.90;;;4.43;;
17169;SDS011;8700;48.222;16.342;2024-03-23T09:58:14;4.53;;;4.22;;
17169;SDS011;8700;48.222;16.342;2024-03-23T10:01:36;4.75;;;4.35;;
17169;SDS011;8700;48.222;16.342;2024-03-23T10:04:57;6.65;;;4.90;;
17169;SDS011;8700;48.222;16.342;2024-03-23T10:08:18;4.82;;;4.43;;
17169;SDS011;8700;48.222;16.342;2024-03-23T10:11:39;5.45;;;4.65;;
17169;SDS011;8700;48.222;16.342;2024-03-23T10:15:02;4.22;;;3.92;;
17169;SDS011;8700;48.222;16.342;2024-03-23T10:18:38;5.25;;;4.63;;
17169;SDS011;8700;48.222;16.342;2024-03-23T10:22:00;4.03;;;3.72;;
17169;SDS011;8700;48.222;16.342;2024-03-23T10:25:22;3.55;;;3.35;;
17169;SDS011;8700;48.222;16.342;2024-03-23T10:28:56;3.20;;;2.90;;
17169;SDS011;8700;48.222;16.342;2024-03-23T10:32:21;3.78;;;3.53;;
17169;SDS011;8700;48.222;16.342;2024-03-23T10:35:42;5.00;;;3.85;;
17169;SDS011;8700;48.222;16.342;2024-03-23T10:39:05;5.25;;;3.55;;
17169;SDS011;8700;48.222;16.342;2024-03-23T10:42:27;3.90;;;3.50;;
17169;SDS011;8700;48.222;16.342;2024-03-23T10:45:48;3.58;;;3.28;;
17169;SDS011;8700;48.222;16.342;2024-03-23T10:49:12;3.17;;;2.92;;
17169;SDS011;8700;48.222;16.342;2024-03-23T10:52:32;7.13;;;3.53;;
17169;SDS011;8700;48.222;16.342;2024-03-23T10:55:55;4.00;;;2.80;;
17169;SDS011;8700;48.222;16.342;2024-03-23T10:59:16;2.60;;;2.33;;
17169;SDS011;8700;48.222;16.342;2024-03-23T11:02:37;3.20;;;2.22;;
17169;SDS011;8700;48.222;16.342;2024-03-23T11:06:01;2.22;;;2.10;;
17169;SDS011;8700;48.222;16.342;2024-03-23T11:09:41;2.47;;;2.10;;
17169;SDS011;8700;48.222;16.342;2024-03-23T11:16:43;6.38;;;2.83;;
17169;SDS011;8700;48.222;16.342;2024-03-23T11:20:04;3.42;;;2.67;;
17169;SDS011;8700;48.222;16.342;2024-03-23T11:23:30;2.92;;;1.80;;
17169;SDS011;8700;48.222;16.342;2024-03-23T11:26:50;3.88;;;2.88;;
17169;SDS011;8700;48.222;16.342;2024-03-23T11:30:12;2.65;;;2.45;;
17169;SDS011;8700;48.222;16.342;2024-03-23T11:33:34;2.80;;;2.05;;
17169;SDS011;8700;48.222;16.342;2024-03-23T11:37:03;2.78;;;2.58;;
17169;SDS011;8700;48.222;16.342;2024-03-23T11:40:26;2.72;;;2.53;;
17169;SDS011;8700;48.222;16.342;2024-03-23T11:43:47;2.92;;;2.72;;
17169;SDS011;8700;48.222;16.342;2024-03-23T11:47:08;4.90;;;2.83;;
17169;SDS011;8700;48.222;16.342;2024-03-23T11:50:30;2.63;;;2.38;;
17169;SDS011;8700;48.222;16.342;2024-03-23T11:53:54;26.65;;;5.28;;
17169;SDS011;8700;48.222;16.342;2024-03-23T11:57:28;3.47;;;2.97;;
17169;SDS011;8700;48.222;16.342;2024-03-23T12:00:49;5.40;;;3.00;;
17169;SDS011;8700;48.222;16.342;2024-03-23T12:04:11;3.60;;;2.65;;
17169;SDS011;8700;48.222;16.342;2024-03-23T12:07:33;2.88;;;2.67;;
17169;SDS011;8700;48.222;16.342;2024-03-23T12:10:53;3.00;;;2.80;;
17169;SDS011;8700;48.222;16.342;2024-03-23T12:14:27;4.22;;;3.92;;
17169;SDS011;8700;48.222;16.342;2024-03-23T12:17:50;4.03;;;3.78;;
17169;SDS011;8700;48.222;16.342;2024-03-23T12:21:11;3.65;;;3.35;;
17169;SDS011;8700;48.222;16.342;2024-03-23T12:24:32;3.80;;;3.50;;
17169;SDS011;8700;48.222;16.342;2024-03-23T12:27:54;4.03;;;3.72;;
17169;SDS011;8700;48.222;16.342;2024-03-23T12:31:19;3.97;;;3.58;;
17169;SDS011;8700;48.222;16.342;2024-03-23T12:34:40;5.10;;;3.70;;
17169;SDS011;8700;48.222;16.342;2024-03-23T12:38:00;12.63;;;4.13;;
17169;SDS011;8700;48.222;16.342;2024-03-23T12:41:22;4.03;;;3.50;;
17169;SDS011;8700;48.222;16.342;2024-03-23T12:44:42;3.97;;;3.33;;
17169;SDS011;8700;48.222;16.342;2024-03-23T12:48:05;4.28;;;3.72;;
17169;SDS011;8700;48.222;16.342;2024-03-23T12:51:28;4.97;;;4.63;;
17169;SDS011;8700;48.222;16.342;2024-03-23T12:54:48;28.67;;;6.28;;
17169;SDS011;8700;48.222;16.342;2024-03-23T12:58:10;11.50;;;5.30;;
17169;SDS011;8700;48.222;16.342;2024-03-23T13:01:30;6.00;;;4.00;;
17169;SDS011;8700;48.222;16.342;2024-03-23T13:04:52;6.57;;;3.88;;
17169;SDS011;8700;48.222;16.342;2024-03-23T13:08:14;19.92;;;4.90;;
17169;SDS011;8700;48.222;16.342;2024-03-23T13:11:35;4.57;;;2.83;;
17169;SDS011;8700;48.222;16.342;2024-03-23T13:14:55;3.90;;;3.60;;
17169;SDS011;8700;48.222;16.342;2024-03-23T13:18:17;3.25;;;2.80;;
17169;SDS011;8700;48.222;16.342;2024-03-23T13:21:38;4.63;;;3.85;;
17169;SDS011;8700;48.222;16.342;2024-03-23T13:24:59;12.30;;;3.25;;
17169;SDS011;8700;48.222;16.342;2024-03-23T13:28:21;3.40;;;3.10;;
17169;SDS011;8700;48.222;16.342;2024-03-23T13:31:42;3.28;;;3.08;;
17169;SDS011;8700;48.222;16.342;2024-03-23T13:35:03;2.90;;;2.70;;
17169;SDS011;8700;48.222;16.342;2024-03-23T13:38:27;3.63;;;3.30;;
17169;SDS011;8700;48.222;16.342;2024-03-23T13:41:48;3.50;;;3.30;;
17169;SDS011;8700;48.222;16.342;2024-03-23T13:45:09;3.60;;;3.30;;
17169;SDS011;8700;48.222;16.342;2024-03-23T13:48:31;3.22;;;3.03;;
17169;SDS011;8700;48.222;16.342;2024-03-23T13:51:52;3.38;;;3.17;;
17169;SDS011;8700;48.222;16.342;2024-03-23T13:55:15;3.25;;;2.90;;
17169;SDS011;8700;48.222;16.342;2024-03-23T13:58:37;3.53;;;3.15;;
17169;SDS011;8700;48.222;16.342;2024-03-23T14:01:58;3.95;;;3.65;;
17169;SDS011;8700;48.222;16.342;2024-03-23T14:05:18;4.18;;;3.88;;
17169;SDS011;8700;48.222;16.342;2024-03-23T14:08:40;7.45;;;6.20;;
17169;SDS011;8700;48.222;16.342;2024-03-23T14:12:03;2.90;;;2.70;;
17169;SDS011;8700;48.222;16.342;2024-03-23T14:15:28;2.42;;;2.22;;
17169;SDS011;8700;48.222;16.342;2024-03-23T14:18:49;3.50;;;3.30;;
17169;SDS011;8700;48.222;16.342;2024-03-23T14:22:10;3.72;;;3.42;;
17169;SDS011;8700;48.222;16.342;2024-03-23T14:25:30;2.50;;;2.30;;
17169;SDS011;8700;48.222;16.342;2024-03-23T14:28:53;3.63;;;3.38;;
17169;SDS011;8700;48.222;16.342;2024-03-23T14:32:14;4.85;;;4.45;;
17169;SDS011;8700;48.222;16.342;2024-03-23T14:35:34;3.58;;;3.38;;
17169;SDS011;8700;48.222;16.342;2024-03-23T14:38:55;5.10;;;3.75;;
17169;SDS011;8700;48.222;16.342;2024-03-23T14:42:17;3.55;;;3.35;;
17169;SDS011;8700;48.222;16.342;2024-03-23T14:45:45;4.30;;;4.00;;
17169;SDS011;8700;48.222;16.342;2024-03-23T14:49:24;5.28;;;4.63;;
17169;SDS011;8700;48.222;16.342;2024-03-23T14:52:46;4.18;;;3.88;;
17169;SDS011;8700;48.222;16.342;2024-03-23T14:56:06;5.40;;;5.00;;
17169;SDS011;8700;48.222;16.342;2024-03-23T14:59:29;4.60;;;4.22;;
17169;SDS011;8700;48.222;16.342;2024-03-23T15:02:52;3.43;;;3.23;;
17169;SDS011;8700;48.222;16.342;2024-03-23T15:06:14;4.50;;;4.10;;
17169;SDS011;8700;48.222;16.342;2024-03-23T15:09:35;5.95;;;5.57;;
17169;SDS011;8700;48.222;16.342;2024-03-23T15:12:55;5.13;;;4.13;;
17169;SDS011;8700;48.222;16.342;2024-03-23T15:16:17;6.90;;;6.50;;
17169;SDS011;8700;48.222;16.342;2024-03-23T15:19:40;4.33;;;4.00;;
17169;SDS011;8700;48.222;16.342;2024-03-23T15:23:05;4.23;;;3.93;;
17169;SDS011;8700;48.222;16.342;2024-03-23T15:26:27;3.97;;;3.67;;
17169;SDS011;8700;48.222;16.342;2024-03-23T15:29:48;3.53;;;3.33;;
17169;SDS011;8700;48.222;16.342;2024-03-23T15:33:08;3.80;;;3.50;;
17169;SDS011;8700;48.222;16.342;2024-03-23T15:36:30;3.77;;;3.47;;
17169;SDS011;8700;48.222;16.342;2024-03-23T15:39:51;4.33;;;3.93;;
17169;SDS011;8700;48.222;16.342;2024-03-23T15:43:12;4.93;;;4.23;;
17169;SDS011;8700;48.222;16.342;2024-03-23T15:46:33;4.17;;;3.97;;
17169;SDS011;8700;48.222;16.342;2024-03-23T15:49:53;3.73;;;3.47;;
17169;SDS011;8700;48.222;16.342;2024-03-23T15:53:17;4.43;;;4.13;;
17169;SDS011;8700;48.222;16.342;2024-03-23T15:56:37;4.47;;;4.17;;
17169;SDS011;8700;48.222;16.342;2024-03-23T15:59:58;4.37;;;4.07;;
17169;SDS011;8700;48.222;16.342;2024-03-23T16:03:18;4.20;;;3.43;;
17169;SDS011;8700;48.222;16.342;2024-03-23T16:06:40;3.60;;;3.40;;
17169;SDS011;8700;48.222;16.342;2024-03-23T16:10:05;4.57;;;4.27;;
17169;SDS011;8700;48.222;16.342;2024-03-23T16:13:29;3.73;;;3.53;;
17169;SDS011;8700;48.222;16.342;2024-03-23T16:16:50;4.30;;;4.00;;
17169;SDS011;8700;48.222;16.342;2024-03-23T16:20:11;3.83;;;3.63;;
17169;SDS011;8700;48.222;16.342;2024-03-23T16:23:33;3.40;;;3.20;;
17169;SDS011;8700;48.222;16.342;2024-03-23T16:26:58;3.40;;;3.30;;
17169;SDS011;8700;48.222;16.342;2024-03-23T16:30:19;5.00;;;4.70;;
17169;SDS011;8700;48.222;16.342;2024-03-23T16:33:40;4.53;;;4.33;;
17169;SDS011;8700;48.222;16.342;2024-03-23T16:37:02;4.17;;;3.87;;
17169;SDS011;8700;48.222;16.342;2024-03-23T16:40:22;5.20;;;4.87;;
17169;SDS011;8700;48.222;16.342;2024-03-23T16:43:45;6.37;;;5.97;;
17169;SDS011;8700;48.222;16.342;2024-03-23T16:47:06;4.67;;;4.47;;
17169;SDS011;8700;48.222;16.342;2024-03-23T16:50:27;4.07;;;3.87;;
17169;SDS011;8700;48.222;16.342;2024-03-23T16:53:49;4.30;;;4.00;;
17169;SDS011;8700;48.222;16.342;2024-03-23T16:57:10;4.95;;;4.65;;
17169;SDS011;8700;48.222;16.342;2024-03-23T17:00:31;4.30;;;4.10;;
17169;SDS011;8700;48.222;16.342;2024-03-23T17:03:53;4.47;;;4.17;;
17169;SDS011;8700;48.222;16.342;2024-03-23T17:07:13;4.53;;;4.23;;
17169;SDS011;8700;48.222;16.342;2024-03-23T17:10:34;4.30;;;4.10;;
17169;SDS011;8700;48.222;16.342;2024-03-23T17:13:56;4.90;;;4.60;;
17169;SDS011;8700;48.222;16.342;2024-03-23T17:17:18;6.37;;;5.87;;
17169;SDS011;8700;48.222;16.342;2024-03-23T17:20:39;4.10;;;3.80;;
17169;SDS011;8700;48.222;16.342;2024-03-23T17:24:01;4.33;;;4.13;;
17169;SDS011;8700;48.222;16.342;2024-03-23T17:27:22;5.07;;;4.77;;
17169;SDS011;8700;48.222;16.342;2024-03-23T17:30:42;4.67;;;4.37;;
17169;SDS011;8700;48.222;16.342;2024-03-23T17:34:05;5.23;;;4.90;;
17169;SDS011;8700;48.222;16.342;2024-03-23T17:37:25;6.00;;;5.67;;
17169;SDS011;8700;48.222;16.342;2024-03-23T17:40:46;6.00;;;5.33;;
17169;SDS011;8700;48.222;16.342;2024-03-23T17:44:08;6.17;;;5.73;;
17169;SDS011;8700;48.222;16.342;2024-03-23T17:47:28;7.23;;;6.10;;
17169;SDS011;8700;48.222;16.342;2024-03-23T17:51:03;5.77;;;5.37;;
17169;SDS011;8700;48.222;16.342;2024-03-23T17:54:24;5.90;;;5.40;;
17169;SDS011;8700;48.222;16.342;2024-03-23T17:57:45;7.07;;;6.47;;
17169;SDS011;8700;48.222;16.342;2024-03-23T18:01:06;5.03;;;4.67;;
17169;SDS011;8700;48.222;16.342;2024-03-23T18:04:28;5.77;;;5.27;;
17169;SDS011;8700;48.222;16.342;2024-03-23T18:07:50;5.80;;;5.47;;
17169;SDS011;8700;48.222;16.342;2024-03-23T18:11:11;5.27;;;4.97;;
17169;SDS011;8700;48.222;16.342;2024-03-23T18:14:32;6.83;;;6.33;;
17169;SDS011;8700;48.222;16.342;2024-03-23T18:17:53;6.80;;;6.20;;
17169;SDS011;8700;48.222;16.342;2024-03-23T18:21:13;7.17;;;6.57;;
17169;SDS011;8700;48.222;16.342;2024-03-23T18:24:36;5.97;;;5.57;;
17169;SDS011;8700;48.222;16.342;2024-03-23T18:27:57;12.60;;;11.30;;
17169;SDS011;8700;48.222;16.342;2024-03-23T18:31:18;6.43;;;5.83;;
17169;SDS011;8700;48.222;16.342;2024-03-23T18:34:39;5.37;;;4.97;;
17169;SDS011;8700;48.222;16.342;2024-03-23T18:38:00;6.87;;;6.27;;
17169;SDS011;8700;48.222;16.342;2024-03-23T18:41:22;6.40;;;5.93;;
17169;SDS011;8700;48.222;16.342;2024-03-23T18:44:43;7.13;;;6.53;;
17169;SDS011;8700;48.222;16.342;2024-03-23T18:48:04;7.30;;;6.37;;
17169;SDS011;8700;48.222;16.342;2024-03-23T18:51:25;8.10;;;7.30;;
17169;SDS011;8700;48.222;16.342;2024-03-23T18:54:47;5.87;;;5.27;;
17169;SDS011;8700;48.222;16.342;2024-03-23T18:58:10;6.17;;;5.67;;
17169;SDS011;8700;48.222;16.342;2024-03-23T19:01:30;10.87;;;5.47;;
17169;SDS011;8700;48.222;16.342;2024-03-23T19:04:52;6.33;;;5.80;;
17169;SDS011;8700;48.222;16.342;2024-03-23T19:08:14;6.77;;;6.37;;
17169;SDS011;8700;48.222;16.342;2024-03-23T19:11:37;6.47;;;6.07;;
17169;SDS011;8700;48.222;16.342;2024-03-23T19:14:59;5.70;;;5.20;;
17169;SDS011;8700;48.222;16.342;2024-03-23T19:18:19;6.73;;;6.17;;
17169;SDS011;8700;48.222;16.342;2024-03-23T19:21:40;6.53;;;6.07;;
17169;SDS011;8700;48.222;16.342;2024-03-23T19:25:01;6.57;;;6.17;;
17169;SDS011;8700;48.222;16.342;2024-03-23T19:28:23;6.97;;;6.47;;
17169;SDS011;8700;48.222;16.342;2024-03-23T19:31:46;6.30;;;5.90;;
17169;SDS011;8700;48.222;16.342;2024-03-23T19:35:06;6.50;;;6.00;;
17169;SDS011;8700;48.222;16.342;2024-03-23T19:38:28;7.10;;;6.47;;
17169;SDS011;8700;48.222;16.342;2024-03-23T19:41:49;10.63;;;6.17;;
17169;SDS011;8700;48.222;16.342;2024-03-23T19:45:09;6.47;;;5.97;;
17169;SDS011;8700;48.222;16.342;2024-03-23T19:48:33;5.63;;;5.27;;
17169;SDS011;8700;48.222;16.342;2024-03-23T19:51:53;6.20;;;5.77;;
17169;SDS011;8700;48.222;16.342;2024-03-23T19:55:14;6.80;;;6.30;;
17169;SDS011;8700;48.222;16.342;2024-03-23T19:58:36;5.40;;;5.00;;
17169;SDS011;8700;48.222;16.342;2024-03-23T20:01:57;5.27;;;4.97;;
17169;SDS011;8700;48.222;16.342;2024-03-23T20:05:19;4.83;;;4.53;;
17169;SDS011;8700;48.222;16.342;2024-03-23T20:08:40;5.57;;;5.13;;
17169;SDS011;8700;48.222;16.342;2024-03-23T20:12:00;4.83;;;4.53;;
17169;SDS011;8700;48.222;16.342;2024-03-23T20:15:23;5.50;;;5.10;;
17169;SDS011;8700;48.222;16.342;2024-03-23T20:18:43;6.30;;;5.90;;
17169;SDS011;8700;48.222;16.342;2024-03-23T20:22:05;8.10;;;7.30;;
17169;SDS011;8700;48.222;16.342;2024-03-23T20:25:25;5.40;;;5.00;;
17169;SDS011;8700;48.222;16.342;2024-03-23T20:28:47;5.87;;;5.57;;
17169;SDS011;8700;48.222;16.342;2024-03-23T20:32:08;4.97;;;4.67;;
17169;SDS011;8700;48.222;16.342;2024-03-23T20:35:30;5.97;;;5.57;;
17169;SDS011;8700;48.222;16.342;2024-03-23T20:38:51;4.87;;;4.47;;
17169;SDS011;8700;48.222;16.342;2024-03-23T20:42:12;6.17;;;5.67;;
17169;SDS011;8700;48.222;16.342;2024-03-23T20:45:34;5.57;;;5.07;;
17169;SDS011;8700;48.222;16.342;2024-03-23T20:48:55;5.87;;;5.47;;
17169;SDS011;8700;48.222;16.342;2024-03-23T20:52:15;5.33;;;4.97;;
17169;SDS011;8700;48.222;16.342;2024-03-23T20:55:38;5.10;;;4.67;;
17169;SDS011;8700;48.222;16.342;2024-03-23T20:58:59;5.80;;;5.30;;